Time;durP1;ratioP1;P1;durP2;ratioP2;P2;SDS_P1;SDS_P2;PMS_P1;PMS_P2;Temp;Humidity;BMP_temperature;BMP_pressure;BME280_temperature;BME280_humidity;BME280_pressure;Samples;Min_cycle;Max_cycle;Signal;HPM_P1;HPM_P2
2024/01/25 00:00:49;;;;;;;95.93;59.15;;;;;;;;;;5039771;28;20032;-48
2024/01/25 00:03:15;;;;;;;92.47;58.92;;;;;;;;;;5016771;28;20021;-47
2024/01/25 00:05:41;;;;;;;90.82;56.70;;;;;;;;;;5039326;28;20442;-48
2024/01/25 00:08:07;;;;;;;89.73;56.60;;;;;;;;;;5013480;28;20056;-47
2024/01/25 00:10:34;;;;;;;86.28;56.60;;;;;;;;;;5038029;28;20075;-48
2024/01/25 00:13:01;;;;;;;86.75;55.45;;;;;;;;;;5023380;28;20053;-47
2024/01/25 00:15:27;;;;;;;92.82;58.70;;;;;;;;;;5040654;28;20029;-48
2024/01/25 00:17:53;;;;;;;85.13;54.33;;;;;;;;;;5031091;28;20088;-47
2024/01/25 00:20:20;;;;;;;86.70;54.30;;;;;;;;;;5034793;28;20041;-48
2024/01/25 00:22:46;;;;;;;86.70;55.67;;;;;;;;;;5017058;28;20104;-48
2024/01/25 00:25:12;;;;;;;92.57;60.15;;;;;;;;;;5043393;28;20029;-47
2024/01/25 00:27:38;;;;;;;95.57;59.80;;;;;;;;;;5035341;28;20479;-48
2024/01/25 00:30:05;;;;;;;95.75;58.53;;;;;;;;;;5052504;28;20044;-46
2024/01/25 00:32:31;;;;;;;102.68;63.78;;;;;;;;;;5013235;28;20038;-48
2024/01/25 00:34:57;;;;;;;101.20;61.00;;;;;;;;;;5023137;28;20025;-48
2024/01/25 00:37:24;;;;;;;99.43;62.20;;;;;;;;;;5048746;28;20406;-48
2024/01/25 00:39:50;;;;;;;102.63;63.10;;;;;;;;;;5034362;28;20033;-50
2024/01/25 00:42:16;;;;;;;97.85;60.50;;;;;;;;;;5017775;28;20649;-47
2024/01/25 00:44:43;;;;;;;94.05;60.25;;;;;;;;;;5035293;28;20383;-46
2024/01/25 00:47:09;;;;;;;95.68;62.25;;;;;;;;;;5051018;28;20025;-48
2024/01/25 00:49:36;;;;;;;91.10;59.28;;;;;;;;;;5053656;28;20029;-51
2024/01/25 00:52:04;;;;;;;98.43;59.97;;;;;;;;;;5046842;28;20068;-47
2024/01/25 00:54:30;;;;;;;102.32;62.35;;;;;;;;;;5033687;28;20263;-47
2024/01/25 00:56:56;;;;;;;94.23;61.73;;;;;;;;;;5034149;28;20061;-48
2024/01/25 00:59:23;;;;;;;106.47;61.90;;;;;;;;;;5035526;28;20252;-50
2024/01/25 01:01:49;;;;;;;94.27;57.13;;;;;;;;;;5044124;28;20501;-47
2024/01/25 01:04:16;;;;;;;96.97;59.92;;;;;;;;;;5033751;28;20033;-46
2024/01/25 01:06:42;;;;;;;95.43;61.40;;;;;;;;;;5032215;28;20043;-48
2024/01/25 01:09:09;;;;;;;102.05;62.50;;;;;;;;;;5035937;28;20025;-47
2024/01/25 01:11:36;;;;;;;95.10;60.00;;;;;;;;;;5051362;28;20033;-48
2024/01/25 01:14:02;;;;;;;101.32;59.03;;;;;;;;;;5022307;28;20425;-48
2024/01/25 01:16:32;;;;;;;103.60;61.77;;;;;;;;;;5041852;28;20060;-48
2024/01/25 01:19:05;;;;;;;95.65;57.47;;;;;;;;;;5033479;28;20041;-49
2024/01/25 01:21:31;;;;;;;89.00;56.60;;;;;;;;;;5016944;28;20400;-47
2024/01/25 01:23:58;;;;;;;90.03;57.58;;;;;;;;;;5053336;28;20029;-48
2024/01/25 01:26:24;;;;;;;89.30;55.47;;;;;;;;;;5035597;28;20452;-48
2024/01/25 01:28:50;;;;;;;89.00;55.35;;;;;;;;;;5018138;28;20107;-48
2024/01/25 01:31:16;;;;;;;86.97;55.15;;;;;;;;;;5026503;28;20120;-50
2024/01/25 01:33:42;;;;;;;92.35;58.25;;;;;;;;;;5033312;28;20112;-47
2024/01/25 01:36:08;;;;;;;89.80;58.47;;;;;;;;;;5033372;28;20034;-50
2024/01/25 01:38:35;;;;;;;92.57;57.88;;;;;;;;;;5015576;28;20023;-49
2024/01/25 01:41:01;;;;;;;90.80;57.83;;;;;;;;;;5015373;28;20029;-48
2024/01/25 01:43:27;;;;;;;97.55;61.17;;;;;;;;;;5015435;28;20464;-47
2024/01/25 01:45:56;;;;;;;94.97;60.67;;;;;;;;;;5022969;28;20025;-49
2024/01/25 01:48:22;;;;;;;97.72;61.78;;;;;;;;;;5051313;28;20032;-47
2024/01/25 01:50:48;;;;;;;105.78;62.08;;;;;;;;;;5040419;28;20061;-49
2024/01/25 01:53:15;;;;;;;106.88;64.03;;;;;;;;;;5033107;28;20021;-48
2024/01/25 01:55:41;;;;;;;127.30;64.07;;;;;;;;;;5032525;28;20053;-49
2024/01/25 01:58:08;;;;;;;108.32;64.95;;;;;;;;;;5032769;28;20033;-47
2024/01/25 02:00:34;;;;;;;109.87;64.77;;;;;;;;;;5020476;28;20029;-47
2024/01/25 02:03:00;;;;;;;110.90;66.77;;;;;;;;;;5044905;28;20648;-48
2024/01/25 02:05:26;;;;;;;109.22;63.88;;;;;;;;;;5032539;28;20060;-47
2024/01/25 02:07:54;;;;;;;104.57;64.53;;;;;;;;;;5043148;28;20021;-49
2024/01/25 02:10:20;;;;;;;114.30;67.60;;;;;;;;;;5052380;28;20433;-47
2024/01/25 02:12:46;;;;;;;110.32;67.03;;;;;;;;;;5052375;28;20017;-47
2024/01/25 02:15:13;;;;;;;121.43;67.60;;;;;;;;;;5052203;28;20036;-49
2024/01/25 02:17:39;;;;;;;125.45;71.07;;;;;;;;;;5034547;28;20033;-47
2024/01/25 02:20:06;;;;;;;116.53;68.53;;;;;;;;;;5041508;28;20438;-50
2024/01/25 02:22:32;;;;;;;112.43;67.22;;;;;;;;;;5032367;28;20034;-47
2024/01/25 02:24:58;;;;;;;116.07;69.28;;;;;;;;;;5032067;28;20467;-51
2024/01/25 02:27:25;;;;;;;103.00;62.83;;;;;;;;;;5032228;28;20033;-47
2024/01/25 02:29:51;;;;;;;117.05;67.78;;;;;;;;;;5014492;28;20117;-48
2024/01/25 02:32:17;;;;;;;111.38;68.63;;;;;;;;;;5032286;28;20026;-48
2024/01/25 02:34:43;;;;;;;119.45;68.53;;;;;;;;;;5032266;28;20029;-47
2024/01/25 02:37:12;;;;;;;110.00;65.43;;;;;;;;;;5032276;28;20567;-47
2024/01/25 02:39:38;;;;;;;112.22;65.97;;;;;;;;;;5031978;28;20041;-47
2024/01/25 02:42:04;;;;;;;101.07;60.87;;;;;;;;;;4997320;28;20088;-47
2024/01/25 02:44:30;;;;;;;95.37;59.10;;;;;;;;;;5031918;28;20048;-48
2024/01/25 02:46:56;;;;;;;107.95;62.50;;;;;;;;;;5014397;28;20022;-47
2024/01/25 02:49:24;;;;;;;101.40;60.47;;;;;;;;;;5018587;28;20079;-46
2024/01/25 02:51:50;;;;;;;101.22;61.17;;;;;;;;;;5031956;28;20034;-47
2024/01/25 02:54:16;;;;;;;90.63;58.20;;;;;;;;;;5031666;28;20071;-47
2024/01/25 02:56:43;;;;;;;112.40;62.70;;;;;;;;;;5031775;28;20056;-47
2024/01/25 02:59:09;;;;;;;94.82;57.10;;;;;;;;;;5030480;28;20388;-46
2024/01/25 03:01:40;;;;;;;94.32;56.45;;;;;;;;;;5030519;28;20471;-47
2024/01/25 03:04:06;;;;;;;105.85;60.90;;;;;;;;;;5031284;28;20109;-47
2024/01/25 03:06:32;;;;;;;101.30;63.17;;;;;;;;;;5031546;28;20022;-46
2024/01/25 03:08:59;;;;;;;96.97;60.10;;;;;;;;;;5031338;28;20017;-47
2024/01/25 03:11:25;;;;;;;100.47;61.50;;;;;;;;;;5031682;28;20479;-48
2024/01/25 03:13:51;;;;;;;90.32;50.65;;;;;;;;;;5030098;28;20055;-48
2024/01/25 03:16:17;;;;;;;107.20;64.18;;;;;;;;;;5029822;28;20037;-46
2024/01/25 03:18:44;;;;;;;106.23;63.37;;;;;;;;;;5031322;28;20029;-49
2024/01/25 03:21:10;;;;;;;108.27;63.73;;;;;;;;;;5031391;28;20037;-47
2024/01/25 03:23:36;;;;;;;118.57;64.00;;;;;;;;;;5031189;28;20037;-47
2024/01/25 03:26:02;;;;;;;105.70;63.45;;;;;;;;;;5030060;28;20083;-47
2024/01/25 03:28:28;;;;;;;83.22;49.45;;;;;;;;;;5030977;28;20516;-48
2024/01/25 03:30:55;;;;;;;107.03;62.95;;;;;;;;;;5030981;28;20412;-46
2024/01/25 03:33:21;;;;;;;113.38;67.82;;;;;;;;;;5031988;28;20029;-46
2024/01/25 03:35:48;;;;;;;117.68;67.65;;;;;;;;;;5030410;28;20523;-48
2024/01/25 03:38:14;;;;;;;106.15;64.70;;;;;;;;;;5030218;28;20083;-47
2024/01/25 03:40:40;;;;;;;101.95;62.08;;;;;;;;;;5031212;28;20029;-49
2024/01/25 03:43:06;;;;;;;108.93;64.65;;;;;;;;;;5030851;28;20017;-48
2024/01/25 03:45:33;;;;;;;107.95;60.55;;;;;;;;;;5029598;28;20017;-47
2024/01/25 03:47:59;;;;;;;107.00;61.35;;;;;;;;;;5031240;28;20022;-47
2024/01/25 03:50:25;;;;;;;105.22;64.38;;;;;;;;;;5029384;28;20041;-45
2024/01/25 03:52:51;;;;;;;121.18;68.88;;;;;;;;;;5032611;28;20112;-47
2024/01/25 03:55:17;;;;;;;116.50;66.55;;;;;;;;;;5034680;28;20021;-47
2024/01/25 03:57:45;;;;;;;108.70;64.53;;;;;;;;;;5034986;28;20108;-47
2024/01/25 04:00:11;;;;;;;117.25;62.58;;;;;;;;;;5034772;28;20553;-47
2024/01/25 04:02:37;;;;;;;93.78;58.22;;;;;;;;;;5034698;28;20029;-47
2024/01/25 04:05:04;;;;;;;97.03;59.60;;;;;;;;;;5034612;28;20151;-47
2024/01/25 04:07:31;;;;;;;102.13;59.90;;;;;;;;;;5034954;28;20022;-48
2024/01/25 04:09:57;;;;;;;104.97;63.57;;;;;;;;;;5034363;28;20026;-47
2024/01/25 04:12:24;;;;;;;96.53;58.38;;;;;;;;;;5033434;28;20044;-46
2024/01/25 04:14:51;;;;;;;108.38;62.13;;;;;;;;;;5034865;28;20441;-47
2024/01/25 04:17:17;;;;;;;101.82;61.55;;;;;;;;;;5034714;28;20030;-46
2024/01/25 04:19:43;;;;;;;107.68;59.67;;;;;;;;;;5034461;28;20032;-48
2024/01/25 04:22:09;;;;;;;113.10;62.70;;;;;;;;;;5016933;28;20022;-49
2024/01/25 04:24:35;;;;;;;102.80;59.58;;;;;;;;;;5032852;28;20052;-46
2024/01/25 04:27:01;;;;;;;115.90;66.82;;;;;;;;;;5033433;28;20029;-47
2024/01/25 04:29:28;;;;;;;112.60;64.07;;;;;;;;;;5034627;28;20547;-48
2024/01/25 04:31:54;;;;;;;110.82;66.15;;;;;;;;;;5033979;28;20472;-48
2024/01/25 04:34:20;;;;;;;112.20;64.22;;;;;;;;;;5033013;28;20041;-48
2024/01/25 04:36:46;;;;;;;111.03;62.22;;;;;;;;;;5034407;28;20041;-45
2024/01/25 04:39:12;;;;;;;111.80;67.97;;;;;;;;;;5034387;28;20404;-48
2024/01/25 04:41:38;;;;;;;108.05;61.85;;;;;;;;;;5032544;28;20021;-47
2024/01/25 04:44:05;;;;;;;127.07;68.93;;;;;;;;;;5034126;28;20076;-47
2024/01/25 04:46:36;;;;;;;121.90;67.55;;;;;;;;;;5034149;28;20025;-47
2024/01/25 04:49:03;;;;;;;111.15;63.28;;;;;;;;;;5038758;28;20132;-48
2024/01/25 04:51:29;;;;;;;127.70;68.63;;;;;;;;;;5046928;28;20140;-47
2024/01/25 04:53:55;;;;;;;128.65;65.88;;;;;;;;;;5035008;28;20021;-47
2024/01/25 04:56:21;;;;;;;116.32;64.97;;;;;;;;;;5034612;28;20475;-48
2024/01/25 04:58:48;;;;;;;118.13;70.17;;;;;;;;;;5034022;28;20038;-47
2024/01/25 05:01:14;;;;;;;110.90;62.92;;;;;;;;;;5016207;28;20128;-46
2024/01/25 05:03:40;;;;;;;111.03;61.87;;;;;;;;;;5033144;28;20404;-49
2024/01/25 05:06:06;;;;;;;111.03;62.13;;;;;;;;;;5034123;28;20036;-49
2024/01/25 05:08:32;;;;;;;107.53;60.40;;;;;;;;;;5033680;28;20376;-49
2024/01/25 05:10:59;;;;;;;103.60;58.07;;;;;;;;;;5033879;28;20665;-47
2024/01/25 05:13:25;;;;;;;103.78;60.03;;;;;;;;;;5033741;28;20127;-47
2024/01/25 05:15:51;;;;;;;98.03;58.95;;;;;;;;;;5033854;28;20027;-51
2024/01/25 05:18:17;;;;;;;101.63;57.57;;;;;;;;;;5016059;28;20072;-50
2024/01/25 05:20:43;;;;;;;104.80;56.75;;;;;;;;;;5033648;28;20029;-47
2024/01/25 05:23:10;;;;;;;99.40;58.55;;;;;;;;;;5033722;28;20108;-49
2024/01/25 05:25:36;;;;;;;107.77;59.20;;;;;;;;;;5015869;28;20032;-53
2024/01/25 05:28:02;;;;;;;117.25;60.08;;;;;;;;;;5033342;28;20044;-48
2024/01/25 05:30:29;;;;;;;108.30;60.67;;;;;;;;;;5033278;28;20025;-47
2024/01/25 05:32:55;;;;;;;;;;;;;;;;;;5016188;28;20065;-47
2024/01/25 05:35:21;;;;;;;99.78;57.95;;;;;;;;;;5015435;28;19912;-50
2024/01/25 05:37:48;;;;;;;94.93;57.47;;;;;;;;;;5033549;28;20026;-48
2024/01/25 05:40:14;;;;;;;99.15;57.55;;;;;;;;;;5033207;28;20033;-47
2024/01/25 05:42:40;;;;;;;102.00;59.07;;;;;;;;;;5033170;28;20164;-52
2024/01/25 05:45:07;;;;;;;109.53;61.88;;;;;;;;;;5032893;28;20500;-47
2024/01/25 05:47:34;;;;;;;;;;;;;;;;;;5033692;28;20032;-47
2024/01/25 05:50:00;;;;;;;110.82;60.70;;;;;;;;;;5033051;28;19919;-49
2024/01/25 05:52:27;;;;;;;110.60;64.17;;;;;;;;;;5033193;28;20045;-47
2024/01/25 05:54:53;;;;;;;106.47;62.72;;;;;;;;;;5032738;28;20392;-48
2024/01/25 05:57:20;;;;;;;106.65;61.33;;;;;;;;;;5033044;28;20032;-49
2024/01/25 05:59:46;;;;;;;102.88;58.50;;;;;;;;;;5031609;28;20044;-47
2024/01/25 06:02:12;;;;;;;116.60;65.80;;;;;;;;;;5015198;28;20474;-51
2024/01/25 06:04:38;;;;;;;115.43;64.20;;;;;;;;;;5014965;28;20326;-52
2024/01/25 06:07:05;;;;;;;118.32;63.03;;;;;;;;;;5031592;28;20025;-47
2024/01/25 06:09:31;;;;;;;103.25;61.38;;;;;;;;;;5032814;28;20056;-50
2024/01/25 06:11:58;;;;;;;115.45;61.85;;;;;;;;;;5032831;28;20419;-48
2024/01/25 06:14:24;;;;;;;108.40;64.50;;;;;;;;;;5032415;28;20460;-47
2024/01/25 06:16:50;;;;;;;116.50;65.18;;;;;;;;;;5032629;28;20029;-49
2024/01/25 06:19:17;;;;;;;115.20;65.75;;;;;;;;;;5032599;28;20030;-50
2024/01/25 06:21:43;;;;;;;113.10;63.67;;;;;;;;;;5032508;28;20029;-51
2024/01/25 06:24:09;;;;;;;102.35;59.45;;;;;;;;;;5032393;28;20401;-50
2024/01/25 06:26:35;;;;;;;99.30;61.17;;;;;;;;;;5031309;28;20115;-51
2024/01/25 06:29:01;;;;;;;99.32;59.40;;;;;;;;;;5031129;28;20030;-47
2024/01/25 06:31:28;;;;;;;109.55;62.47;;;;;;;;;;5032567;28;20033;-50
2024/01/25 06:33:54;;;;;;;113.70;64.75;;;;;;;;;;5032414;28;20415;-48
2024/01/25 06:36:21;;;;;;;104.63;62.57;;;;;;;;;;5032414;28;20029;-47
2024/01/25 06:38:47;;;;;;;103.07;58.73;;;;;;;;;;5032271;28;20022;-51
2024/01/25 06:41:13;;;;;;;102.23;60.87;;;;;;;;;;5032290;28;20508;-51
2024/01/25 06:43:40;;;;;;;114.80;67.60;;;;;;;;;;5032183;28;20026;-48
2024/01/25 06:46:07;;;;;;;105.00;60.58;;;;;;;;;;5030986;28;20033;-46
2024/01/25 06:48:33;;;;;;;106.28;60.97;;;;;;;;;;5030638;28;20021;-46
2024/01/25 06:51:00;;;;;;;96.50;57.70;;;;;;;;;;5032096;28;20053;-49
2024/01/25 06:53:27;;;;;;;103.80;59.47;;;;;;;;;;5032007;28;20056;-46
2024/01/25 06:55:53;;;;;;;124.20;63.73;;;;;;;;;;5031929;28;20038;-46
2024/01/25 06:58:19;;;;;;;123.60;63.13;;;;;;;;;;5031937;28;20468;-47
2024/01/25 07:00:46;;;;;;;126.85;60.60;;;;;;;;;;5031926;28;20109;-46
2024/01/25 07:03:13;;;;;;;107.50;55.42;;;;;;;;;;5032012;28;20030;-48
2024/01/25 07:05:39;;;;;;;76.65;42.83;;;;;;;;;;5030479;28;20029;-47
2024/01/25 07:08:07;;;;;;;107.78;57.92;;;;;;;;;;5031899;28;20044;-46
2024/01/25 07:10:33;;;;;;;99.75;55.33;;;;;;;;;;5031601;28;20013;-47
2024/01/25 07:12:59;;;;;;;96.00;55.17;;;;;;;;;;5031823;28;20021;-47
2024/01/25 07:15:26;;;;;;;116.85;58.33;;;;;;;;;;5031550;28;20021;-48
2024/01/25 07:17:52;;;;;;;107.60;57.30;;;;;;;;;;5031551;28;20112;-47
2024/01/25 07:20:18;;;;;;;97.45;52.50;;;;;;;;;;5031656;28;20042;-49
2024/01/25 07:22:44;;;;;;;97.65;51.63;;;;;;;;;;5031592;28;20496;-48
2024/01/25 07:25:10;;;;;;;100.93;53.53;;;;;;;;;;5030093;28;20407;-48
2024/01/25 07:27:36;;;;;;;85.40;49.33;;;;;;;;;;5034592;28;20025;-47
2024/01/25 07:30:03;;;;;;;77.72;49.42;;;;;;;;;;5038152;28;20028;-50
2024/01/25 07:32:29;;;;;;;65.57;44.50;;;;;;;;;;5038041;28;20407;-48
2024/01/25 07:34:55;;;;;;;66.17;44.33;;;;;;;;;;5038042;28;20025;-47
2024/01/25 07:37:21;;;;;;;76.22;48.17;;;;;;;;;;5038031;28;20025;-49
2024/01/25 07:39:47;;;;;;;85.18;49.72;;;;;;;;;;5036982;28;20435;-47
2024/01/25 07:42:13;;;;;;;83.25;51.60;;;;;;;;;;5037940;28;20387;-48
2024/01/25 07:44:40;;;;;;;90.77;56.97;;;;;;;;;;5038036;28;20030;-47
2024/01/25 07:47:06;;;;;;;101.00;62.17;;;;;;;;;;5036703;28;20260;-47
2024/01/25 07:49:32;;;;;;;109.10;70.70;;;;;;;;;;5036577;28;20545;-47
2024/01/25 07:51:58;;;;;;;111.93;61.53;;;;;;;;;;5038167;28;20025;-47
2024/01/25 07:54:25;;;;;;;104.82;63.05;;;;;;;;;;5019954;28;20090;-47
2024/01/25 07:56:51;;;;;;;111.53;64.22;;;;;;;;;;5037976;28;20017;-48
2024/01/25 07:59:17;;;;;;;106.32;58.78;;;;;;;;;;5037868;28;20025;-47
2024/01/25 08:01:44;;;;;;;112.38;61.47;;;;;;;;;;5037807;28;20030;-47
2024/01/25 08:04:10;;;;;;;99.00;59.83;;;;;;;;;;5037860;28;20384;-46
2024/01/25 08:06:36;;;;;;;105.57;64.13;;;;;;;;;;5037874;28;20256;-49
2024/01/25 08:09:02;;;;;;;106.82;63.58;;;;;;;;;;5036527;28;20128;-47
2024/01/25 08:11:29;;;;;;;115.88;67.72;;;;;;;;;;5037945;28;20029;-46
2024/01/25 08:13:55;;;;;;;117.25;69.75;;;;;;;;;;5037720;28;20045;-48
2024/01/25 08:16:21;;;;;;;116.67;69.23;;;;;;;;;;5037837;28;20025;-47
2024/01/25 08:18:48;;;;;;;126.93;72.50;;;;;;;;;;5037526;28;20091;-48
2024/01/25 08:21:14;;;;;;;124.13;73.53;;;;;;;;;;5036543;28;20034;-47
2024/01/25 08:23:41;;;;;;;97.00;58.83;;;;;;;;;;5037475;28;20033;-47
2024/01/25 08:26:12;;;;;;;;;;;;;;;;;;5036877;28;20099;-47
2024/01/25 08:28:44;;;;;;;125.13;73.95;;;;;;;;;;5037571;28;19912;-48
2024/01/25 08:31:11;;;;;;;144.30;89.57;;;;;;;;;;5036373;28;20035;-47
2024/01/25 08:33:41;;;;;;;125.75;76.22;;;;;;;;;;5037385;28;20025;-48
2024/01/25 08:36:08;;;;;;;133.60;78.13;;;;;;;;;;5037611;28;20398;-48
2024/01/25 08:38:34;;;;;;;122.80;75.85;;;;;;;;;;5035918;28;20061;-49
2024/01/25 08:41:00;;;;;;;121.72;71.10;;;;;;;;;;5034089;28;20387;-47
2024/01/25 08:43:27;;;;;;;122.40;73.35;;;;;;;;;;5034407;28;20025;-47
2024/01/25 08:45:53;;;;;;;128.48;71.80;;;;;;;;;;5034494;28;20068;-51
2024/01/25 08:48:20;;;;;;;124.53;72.90;;;;;;;;;;5033024;28;20029;-48
2024/01/25 08:50:48;;;;;;;125.50;77.68;;;;;;;;;;5034234;28;20067;-47
2024/01/25 08:53:16;;;;;;;131.20;75.82;;;;;;;;;;5034248;28;20029;-47
2024/01/25 08:55:42;;;;;;;109.90;68.30;;;;;;;;;;5032713;28;20033;-50
2024/01/25 08:58:08;;;;;;;114.47;67.13;;;;;;;;;;5034261;28;20030;-47
2024/01/25 09:00:34;;;;;;;120.32;68.10;;;;;;;;;;5034181;28;20025;-48
2024/01/25 09:03:00;;;;;;;121.72;71.28;;;;;;;;;;5033962;28;20020;-50
2024/01/25 09:05:28;;;;;;;112.70;67.25;;;;;;;;;;5033899;28;20391;-48
2024/01/25 09:07:54;;;;;;;;;;;;;;;;;;5034458;28;20488;-50
2024/01/25 09:10:20;;;;;;;105.57;65.38;;;;;;;;;;5033898;28;20375;-49
2024/01/25 09:12:46;;;;;;;109.45;65.65;;;;;;;;;;5032705;28;20033;-47
2024/01/25 09:15:12;;;;;;;106.60;67.18;;;;;;;;;;5032555;28;20032;-48
2024/01/25 09:17:38;;;;;;;112.18;65.70;;;;;;;;;;5033750;28;20037;-48
2024/01/25 09:20:05;;;;;;;105.32;62.50;;;;;;;;;;5032744;28;20021;-47
2024/01/25 09:22:31;;;;;;;100.63;63.67;;;;;;;;;;5033627;28;20035;-48
2024/01/25 09:24:57;;;;;;;115.25;68.40;;;;;;;;;;5033884;28;20060;-47
2024/01/25 09:27:24;;;;;;;104.93;61.72;;;;;;;;;;5033687;28;20128;-47
2024/01/25 09:29:50;;;;;;;101.38;62.70;;;;;;;;;;5015656;28;20021;-51
2024/01/25 09:32:16;;;;;;;108.18;66.05;;;;;;;;;;5033321;28;20416;-47
2024/01/25 09:34:42;;;;;;;104.95;62.38;;;;;;;;;;5033210;28;20029;-48
2024/01/25 09:37:08;;;;;;;106.70;63.23;;;;;;;;;;5032146;28;20487;-51
2024/01/25 09:39:35;;;;;;;110.00;65.10;;;;;;;;;;5033265;28;20491;-48
2024/01/25 09:42:02;;;;;;;96.70;62.58;;;;;;;;;;5033338;28;20066;-47
2024/01/25 09:44:29;;;;;;;105.13;70.22;;;;;;;;;;5032995;28;20423;-48
2024/01/25 09:46:55;;;;;;;108.07;66.97;;;;;;;;;;5033136;28;20076;-48
2024/01/25 09:49:23;;;;;;;109.50;66.57;;;;;;;;;;5033038;28;20034;-51
2024/01/25 09:51:51;;;;;;;99.88;64.13;;;;;;;;;;5032774;28;20068;-48
2024/01/25 09:54:17;;;;;;;114.47;70.40;;;;;;;;;;5032877;28;20027;-51
2024/01/25 09:56:44;;;;;;;113.40;69.57;;;;;;;;;;5032983;28;20030;-47
2024/01/25 09:59:10;;;;;;;116.30;75.18;;;;;;;;;;5033277;28;20359;-48
2024/01/25 10:01:37;;;;;;;122.67;74.40;;;;;;;;;;5032853;28;20033;-51
2024/01/25 10:04:06;;;;;;;116.30;72.38;;;;;;;;;;5031506;28;20120;-49
2024/01/25 10:06:33;;;;;;;114.07;73.72;;;;;;;;;;5031566;28;20308;-49
2024/01/25 10:08:59;;;;;;;107.38;69.00;;;;;;;;;;5033104;28;20438;-50
2024/01/25 10:11:28;;;;;;;115.45;70.60;;;;;;;;;;5032779;28;20061;-51
2024/01/25 10:13:56;;;;;;;110.20;70.22;;;;;;;;;;5032392;28;20017;-50
2024/01/25 10:16:23;;;;;;;103.22;69.88;;;;;;;;;;5032609;28;20408;-48
2024/01/25 10:18:49;;;;;;;105.53;69.68;;;;;;;;;;5032562;28;20296;-48
2024/01/25 10:21:19;;;;;;;109.97;69.57;;;;;;;;;;5031314;28;20128;-47
2024/01/25 10:23:47;;;;;;;110.43;72.35;;;;;;;;;;5032388;28;20465;-51
2024/01/25 10:26:13;;;;;;;114.00;74.43;;;;;;;;;;5032354;28;20447;-47
2024/01/25 10:28:39;;;;;;;99.75;68.95;;;;;;;;;;5032312;28;20037;-49
2024/01/25 10:31:06;;;;;;;106.75;71.00;;;;;;;;;;5032468;28;20415;-49
2024/01/25 10:33:32;;;;;;;105.20;70.95;;;;;;;;;;5032175;28;20116;-51
2024/01/25 10:36:03;;;;;;;115.07;74.30;;;;;;;;;;5032316;28;20466;-50
2024/01/25 10:38:34;;;;;;;111.10;71.90;;;;;;;;;;5032243;28;20152;-50
2024/01/25 10:41:01;;;;;;;107.55;72.32;;;;;;;;;;5032096;28;20033;-49
2024/01/25 10:43:30;;;;;;;103.38;71.80;;;;;;;;;;5032166;28;20030;-50
2024/01/25 10:45:58;;;;;;;114.10;73.38;;;;;;;;;;5032369;28;20417;-49
2024/01/25 10:48:28;;;;;;;107.47;68.25;;;;;;;;;;5031063;28;20025;-48
2024/01/25 10:50:55;;;;;;;118.15;73.30;;;;;;;;;;5031232;28;20087;-46
2024/01/25 10:53:24;;;;;;;104.70;72.50;;;;;;;;;;5030600;28;20052;-46
2024/01/25 10:55:51;;;;;;;100.88;69.53;;;;;;;;;;5030813;28;20033;-48
2024/01/25 10:58:18;;;;;;;118.72;69.25;;;;;;;;;;5032073;28;20075;-47
2024/01/25 11:01:01;;;;;;;128.93;73.90;;;;;;;;;;5031900;28;20116;-46
2024/01/25 11:03:27;;;;;;;96.32;65.50;;;;;;;;;;5031004;28;20100;-48
2024/01/25 11:06:10;;;;;;;104.00;68.35;;;;;;;;;;5030455;28;20021;-47
2024/01/25 11:08:39;;;;;;;105.60;71.97;;;;;;;;;;5030418;28;20039;-49
2024/01/25 11:11:09;;;;;;;105.60;70.07;;;;;;;;;;5031755;28;20021;-48
2024/01/25 11:13:35;;;;;;;102.50;64.25;;;;;;;;;;5030302;28;20061;-46
2024/01/25 11:16:14;;;;;;;105.00;68.88;;;;;;;;;;5030558;28;20040;-47
2024/01/25 11:18:49;;;;;;;106.93;70.30;;;;;;;;;;5031697;28;20076;-47
2024/01/25 11:21:34;;;;;;;108.75;69.68;;;;;;;;;;5031535;28;20036;-48
2024/01/25 11:24:03;;;;;;;104.82;70.38;;;;;;;;;;5030994;28;20036;-47
2024/01/25 11:26:30;;;;;;;104.80;71.57;;;;;;;;;;5012817;28;20026;-48
2024/01/25 11:28:56;;;;;;;106.15;72.28;;;;;;;;;;5028396;28;20443;-47
2024/01/25 11:31:26;;;;;;;107.82;72.00;;;;;;;;;;5028431;28;20057;-50
2024/01/25 11:33:52;;;;;;;103.70;69.68;;;;;;;;;;5029269;28;20025;-48
2024/01/25 11:36:22;;;;;;;108.63;73.47;;;;;;;;;;5028266;28;20080;-47
2024/01/25 11:38:48;;;;;;;116.38;74.85;;;;;;;;;;5029329;28;20028;-48
2024/01/25 11:41:15;;;;;;;97.25;67.32;;;;;;;;;;5029246;28;20052;-48
2024/01/25 11:43:41;;;;;;;100.88;67.30;;;;;;;;;;5029440;28;20116;-48
2024/01/25 11:46:07;;;;;;;97.57;66.10;;;;;;;;;;5028064;28;20033;-48
2024/01/25 11:48:34;;;;;;;101.70;69.27;;;;;;;;;;5029177;28;20041;-46
2024/01/25 11:51:00;;;;;;;103.93;72.90;;;;;;;;;;5028591;28;20120;-51
2024/01/25 11:53:26;;;;;;;101.75;66.80;;;;;;;;;;5029411;28;20022;-47
2024/01/25 11:55:54;;;;;;;96.55;66.25;;;;;;;;;;5028296;28;20124;-48
2024/01/25 11:58:21;;;;;;;96.57;64.82;;;;;;;;;;5028747;28;20022;-48
2024/01/25 12:00:47;;;;;;;112.78;71.20;;;;;;;;;;5029227;28;20029;-47
2024/01/25 12:03:14;;;;;;;98.53;68.88;;;;;;;;;;5029407;28;20112;-47
2024/01/25 12:05:40;;;;;;;104.65;68.43;;;;;;;;;;5029590;28;20037;-47
2024/01/25 12:08:10;;;;;;;96.35;64.80;;;;;;;;;;5029408;28;20025;-48
2024/01/25 12:10:36;;;;;;;94.78;66.15;;;;;;;;;;5028038;28;20061;-47
2024/01/25 12:13:02;;;;;;;96.82;68.43;;;;;;;;;;5030268;28;20036;-49
2024/01/25 12:15:28;;;;;;;97.80;69.38;;;;;;;;;;5032864;28;20029;-48
2024/01/25 12:17:54;;;;;;;101.63;70.25;;;;;;;;;;5031856;28;20448;-48
2024/01/25 12:20:21;;;;;;;107.20;71.53;;;;;;;;;;5030590;28;20052;-46
2024/01/25 12:22:49;;;;;;;113.30;73.05;;;;;;;;;;5012923;28;20127;-48
2024/01/25 12:25:15;;;;;;;99.80;70.88;;;;;;;;;;5030302;28;20033;-48
2024/01/25 12:27:41;;;;;;;92.65;68.30;;;;;;;;;;5032784;28;20025;-48
2024/01/25 12:30:11;;;;;;;100.63;67.25;;;;;;;;;;5031332;28;20021;-49
2024/01/25 12:32:37;;;;;;;91.75;63.95;;;;;;;;;;5031703;28;20056;-48
2024/01/25 12:35:07;;;;;;;95.68;65.13;;;;;;;;;;5032795;28;20032;-48
2024/01/25 12:37:34;;;;;;;92.85;66.47;;;;;;;;;;5031286;28;20040;-48
2024/01/25 12:40:00;;;;;;;98.50;66.80;;;;;;;;;;5031288;28;20112;-48
2024/01/25 12:42:26;;;;;;;92.13;63.08;;;;;;;;;;5032485;28;20048;-48
2024/01/25 12:44:54;;;;;;;80.13;60.88;;;;;;;;;;5032574;28;20476;-47
2024/01/25 12:47:20;;;;;;;84.22;62.28;;;;;;;;;;5032464;28;20065;-48
2024/01/25 12:49:46;;;;;;;87.63;62.85;;;;;;;;;;5032740;28;20037;-48
2024/01/25 12:52:13;;;;;;;91.70;64.63;;;;;;;;;;5043277;28;20476;-49
2024/01/25 12:54:39;;;;;;;84.20;61.45;;;;;;;;;;5035949;28;20033;-47
2024/01/25 12:57:06;;;;;;;85.30;62.63;;;;;;;;;;5016023;28;20043;-49
2024/01/25 12:59:36;;;;;;;84.30;61.70;;;;;;;;;;5032379;28;20064;-47
2024/01/25 13:02:02;;;;;;;86.78;63.05;;;;;;;;;;5020847;28;20116;-49
2024/01/25 13:04:28;;;;;;;79.33;59.80;;;;;;;;;;5042596;28;20025;-46
2024/01/25 13:06:58;;;;;;;83.13;60.97;;;;;;;;;;5052135;28;20037;-48
2024/01/25 13:09:24;;;;;;;84.03;61.92;;;;;;;;;;5022298;28;20059;-46
2024/01/25 13:11:52;;;;;;;81.70;63.72;;;;;;;;;;5032423;28;20111;-45
2024/01/25 13:14:18;;;;;;;80.45;62.97;;;;;;;;;;5007515;28;20075;-47
2024/01/25 13:16:44;;;;;;;92.90;64.53;;;;;;;;;;5046154;28;20037;-46
2024/01/25 13:19:11;;;;;;;83.80;65.03;;;;;;;;;;5033738;28;20048;-45
2024/01/25 13:21:39;;;;;;;82.43;66.35;;;;;;;;;;5038233;28;20638;-47
2024/01/25 13:24:05;;;;;;;81.00;64.57;;;;;;;;;;5036913;28;20064;-47
2024/01/25 13:26:32;;;;;;;81.25;63.55;;;;;;;;;;5044062;28;20570;-48
2024/01/25 13:28:58;;;;;;;81.40;62.53;;;;;;;;;;5040995;28;20026;-50
2024/01/25 13:31:24;;;;;;;79.30;62.97;;;;;;;;;;5040859;28;20045;-46
2024/01/25 13:33:50;;;;;;;75.57;62.03;;;;;;;;;;5046963;28;20410;-48
2024/01/25 13:36:17;;;;;;;83.13;64.65;;;;;;;;;;5033330;28;20312;-47
2024/01/25 13:38:43;;;;;;;81.00;63.37;;;;;;;;;;5033149;28;20052;-46
2024/01/25 13:41:09;;;;;;;80.17;62.87;;;;;;;;;;5015511;28;20284;-46
2024/01/25 13:43:35;;;;;;;81.40;63.13;;;;;;;;;;5033087;28;20025;-48
2024/01/25 13:46:01;;;;;;;88.77;70.10;;;;;;;;;;5033235;28;20037;-49
2024/01/25 13:48:27;;;;;;;80.47;62.60;;;;;;;;;;5032942;28;20335;-46
2024/01/25 13:50:54;;;;;;;82.68;66.50;;;;;;;;;;5028115;28;20554;-47
2024/01/25 13:53:20;;;;;;;85.13;66.30;;;;;;;;;;5033172;28;20434;-48
2024/01/25 13:55:46;;;;;;;84.77;63.17;;;;;;;;;;5032988;28;20057;-47
2024/01/25 13:58:12;;;;;;;79.32;62.58;;;;;;;;;;5031882;28;20079;-48
2024/01/25 14:00:38;;;;;;;78.10;61.63;;;;;;;;;;5033338;28;20049;-47
2024/01/25 14:03:05;;;;;;;85.70;64.53;;;;;;;;;;5032702;28;20284;-49
2024/01/25 14:05:31;;;;;;;83.78;65.30;;;;;;;;;;5032714;28;20030;-47
2024/01/25 14:07:57;;;;;;;81.50;60.42;;;;;;;;;;5032839;28;20026;-50